Latest Weather Observations for Weipa

IDQ60801

Issued at 9:52 am EST Thursday 23 September 2021 (issued every 10 minutes, with the page automatically refreshed every 10 minutes)

About weather observations | Map of weather stations | Latest weather observations for QLD | Other Formats
Station Details ID: 027045 Name: WEIPA AERO Lat: -12.68 Lon: 141.92 Height: 17.96 m
Data from the previous 72 hours. | See also: Recent months at Weipa
Date/Time
EST
Temp
°C
App
Temp
°C
Dew
Point
°C
Rel
Hum
%
Delta-T
°C
Wind Press
QNH
hPa
Press
MSL
hPa
Rain since
9am
mm
Dir  Spd
km/h
Gust
km/h
Spd
kts
Gust
kts
23/09:30am 26.7 22.9 16.6 54 6.3 E 32 48 17 26 1015.5 1015.4 0.0
23/09:00am 26.0 22.6 16.8 57 5.7 ESE 30 39 16 21 1015.5 1015.4 0.0
23/08:30am 24.0 21.8 16.8 64 4.4 ESE 24 35 13 19 1015.3 1015.2 0.0
23/08:00am 23.5 22.5 17.5 69 3.7 ESE 19 24 10 13 1015.1 1015.0 0.0
23/07:30am 22.8 21.9 17.7 73 3.2 ESE 19 24 10 13 1014.7 1014.6 0.0
23/07:00am 21.9 21.7 17.7 77 2.6 SE 15 17 8 9 1014.3 1014.2 0.0
23/06:30am 21.2 21.4 17.6 80 2.2 ESE 13 17 7 9 1014.0 1013.9 0.0
23/06:00am 20.7 21.3 17.7 83 1.8 SE 11 13 6 7 1013.8 1013.7 0.0
23/05:30am 20.7 21.3 17.7 83 1.8 SE 11 15 6 8 1013.4 1013.3 0.0
23/05:00am 20.8 21.4 17.8 83 1.9 SE 11 13 6 7 1013.2 1013.1 0.0
23/04:30am 20.7 21.8 17.9 84 1.7 SE 9 13 5 7 1012.9 1012.8 0.0
23/04:00am 20.9 21.9 17.7 82 2.0 SE 9 13 5 7 1012.9 1012.8 0.0
23/03:30am 21.1 22.2 17.9 82 2.0 SE 9 13 5 7 1013.0 1012.9 0.0
23/03:00am 20.8 21.8 17.8 83 1.9 SE 9 11 5 6 1013.1 1013.0 0.0
23/02:30am 21.7 22.8 17.9 79 2.4 SE 9 11 5 6 1013.1 1013.0 0.0
23/02:00am 22.1 22.4 17.9 77 2.6 ESE 13 15 7 8 1013.3 1013.2 0.0
23/01:30am 22.3 22.6 17.9 76 2.7 SE 13 15 7 8 1013.9 1013.8 0.0
23/01:00am 22.7 23.0 18.0 75 2.9 ESE 13 17 7 9 1014.2 1014.1 0.0
23/12:30am 23.0 22.9 17.9 73 3.2 ESE 15 19 8 10 1014.2 1014.1 0.0
23/12:00am 23.4 22.9 17.8 71 3.5 ESE 17 22 9 12 1014.4 1014.3 0.0
 
Date/Time
EST
Temp
°C
App
Temp
°C
Dew
Point
°C
Rel
Hum
%
Delta-T
°C
Wind Press
QNH
hPa
Press
MSL
hPa
Rain since
9am
mm
Dir  Spd
km/h
Gust
km/h
Spd
kts
Gust
kts
22/11:30pm 23.7 23.2 17.9 70 3.6 E 17 22 9 12 1014.3 1014.2 0.0
22/11:00pm 23.9 23.4 17.9 69 3.8 E 17 22 9 12 1014.5 1014.4 0.0
22/10:30pm 24.5 23.0 17.7 66 4.3 E 22 28 12 15 1014.6 1014.5 0.0
22/10:00pm 24.8 23.2 17.5 64 4.6 E 22 30 12 16 1014.5 1014.4 0.0
22/09:30pm 25.2 23.6 17.4 62 4.9 E 22 32 12 17 1014.6 1014.5 0.0
22/09:00pm 25.7 23.8 16.8 58 5.5 E 22 30 12 16 1014.3 1014.2 0.0
22/08:30pm 25.9 24.2 16.2 55 6.0 E 20 26 11 14 1014.0 1013.9 0.0
22/08:00pm 26.4 24.3 16.1 53 6.3 ESE 22 28 12 15 1013.7 1013.6 0.0
22/07:30pm 26.9 22.5 15.6 50 6.9 ESE 33 43 18 23 1013.1 1013.0 0.0
22/07:00pm 27.5 23.5 15.2 47 7.5 ESE 30 39 16 21 1012.5 1012.4 0.0
22/06:30pm 28.2 25.1 14.4 42 8.3 ESE 24 32 13 17 1011.7 1011.6 0.0
22/06:00pm 28.9 24.3 14.7 42 8.6 ESE 32 43 17 23 1011.3 1011.2 0.0
22/05:30pm 29.9 25.3 15.2 41 9.0 E 33 43 18 23 1010.9 1010.8 0.0
22/05:00pm 30.6 26.4 15.8 40 9.2 ESE 32 41 17 22 1010.6 1010.5 0.0
22/04:30pm 31.5 27.2 15.9 39 9.7 ESE 33 44 18 24 1010.4 1010.3 0.0
22/04:00pm 32.7 29.3 15.7 36 10.6 E 28 41 15 22 1010.1 1010.0 0.0
22/03:30pm 32.8 30.0 15.3 34 10.9 ESE 24 35 13 19 1010.1 1010.0 0.0
22/03:00pm 32.6 28.8 14.7 34 11.0 ESE 28 37 15 20 1010.2 1010.1 0.0
22/02:30pm 33.6 30.5 14.6 31 11.7 ESE 24 35 13 19 1010.5 1010.4 0.0
22/02:00pm 34.1 31.2 14.1 30 12.3 ESE 22 37 12 20 1010.4 1010.3 0.0
22/01:30pm 34.5 31.0 12.2 26 13.3 ENE 22 35 12 19 1010.8 1010.7 0.0
22/01:00pm 33.8 29.9 12.2 27 12.9 E 24 37 13 20 1011.2 1011.1 0.0
22/12:30pm 34.4 30.1 12.1 26 13.3 E 26 35 14 19 1011.6 1011.5 0.0
22/12:00pm 31.9 28.5 13.6 32 11.0 ENE 24 37 13 20 1012.0 1011.9 0.0
22/11:30am 31.7 28.2 14.4 35 10.6 ESE 26 37 14 20 1012.5 1012.4 0.0
22/11:00am 31.5 26.6 14.2 35 10.5 ESE 33 44 18 24 1012.9 1012.8 0.0
22/10:30am 30.6 26.9 15.1 39 9.5 ESE 28 41 15 22 1013.1 1013.0 0.0
22/10:00am 29.9 27.8 15.2 41 9.0 ESE 20 35 11 19 1013.0 1012.9 0.0
22/09:30am 28.1 27.3 17.0 51 7.0 SE 17 24 9 13 1013.2 1013.1 0.0
22/09:00am 26.9 27.2 17.9 57 5.7 SE 13 24 7 13 1013.1 1013.0 0.0
22/08:30am 25.0 25.6 18.7 68 4.0 S 13 17 7 9 1013.3 1013.2 0.0
22/08:00am 24.0 25.9 19.7 77 2.8 SSE 9 11 5 6 1013.0 1012.9 0.0
22/07:30am 22.1 24.5 20.0 88 1.3 SSE 7 11 4 6 1012.5 1012.4 0.0
22/07:00am 20.6 22.7 19.4 93 0.8 SE 7 9 4 5 1012.1 1012.0 0.0
22/06:30am 19.9 21.4 18.9 94 0.6 SSE 9 11 5 6 1011.6 1011.5 0.0
22/06:00am 20.2 22.1 18.9 92 0.8 SE 7 9 4 5 1011.2 1011.1 0.0
22/05:30am 20.5 22.4 19.0 91 0.9 SE 7 9 4 5 1010.9 1010.8 0.0
22/05:00am 20.4 21.9 18.9 91 0.9 SE 9 11 5 6 1010.7 1010.6 0.0
22/04:30am 20.5 22.1 19.2 92 0.8 SSE 9 11 5 6 1010.8 1010.7 0.0
22/04:00am 20.6 22.6 19.1 91 0.9 SSE 7 9 4 5 1010.8 1010.7 0.0
22/03:30am 21.2 23.0 19.5 90 1.1 SE 9 13 5 7 1010.9 1010.8 0.0
22/03:00am 20.4 22.4 19.1 92 0.8 S 7 13 4 7 1011.2 1011.1 0.0
22/02:30am 20.3 23.2 18.2 88 1.3 CALM 0 0 0 0 1011.1 1011.0 0.0
22/02:00am 20.2 22.8 18.3 89 1.2 S 2 6 1 3 1011.6 1011.5 0.0
22/01:30am 21.3 24.4 18.7 85 1.6 CALM 0 0 0 0 1011.5 1011.4 0.0
22/01:00am 21.7 24.8 18.7 83 1.9 CALM 0 0 0 0 1012.3 1012.2 0.0
22/12:30am 22.6 24.2 19.2 81 2.2 ENE 9 11 5 6 1012.7 1012.6 0.0
22/12:00am 22.6 26.1 19.6 83 1.9 CALM 0 6 0 3 1013.3 1013.2 0.0
 
Date/Time
EST
Temp
°C
App
Temp
°C
Dew
Point
°C
Rel
Hum
%
Delta-T
°C
Wind Press
QNH
hPa
Press
MSL
hPa
Rain since
9am
mm
Dir  Spd
km/h
Gust
km/h
Spd
kts
Gust
kts
21/11:30pm 22.8 25.1 19.8 83 1.9 SE 7 9 4 5 1013.6 1013.5 0.0
21/11:00pm 22.7 25.1 20.0 85 1.7 SSE 7 9 4 5 1013.6 1013.5 0.0
21/10:30pm 23.3 26.8 20.4 84 1.9 NE 2 9 1 5 1013.5 1013.4 0.0
21/10:00pm 24.3 27.3 20.8 81 2.3 NE 6 9 3 5 1013.4 1013.3 0.0
21/09:30pm 24.5 27.0 21.0 81 2.3 NE 9 11 5 6 1013.2 1013.1 0.0
21/09:00pm 24.8 27.7 21.1 80 2.4 NE 7 9 4 5 1012.9 1012.8 0.0
21/08:30pm 25.2 27.7 21.1 78 2.7 NNE 9 11 5 6 1012.3 1012.2 0.0
21/08:00pm 25.7 28.5 20.9 75 3.2 NE 7 9 4 5 1012.0 1011.9 0.0
21/07:30pm 26.2 30.4 21.0 73 3.4 CALM 0 2 0 1 1011.6 1011.5 0.0
21/07:00pm 26.4 29.0 21.2 73 3.4 W 9 13 5 7 1011.0 1010.9 0.0
21/06:30pm 26.8 29.6 20.9 70 3.9 WNW 7 15 4 8 1010.7 1010.6 0.0
21/06:00pm 27.6 29.4 21.2 68 4.3 WNW 13 19 7 10 1010.2 1010.1 0.0
21/05:30pm 28.1 29.3 20.6 63 4.9 W 15 22 8 12 1009.7 1009.6 0.0
21/05:00pm 28.9 30.0 20.4 60 5.6 W 15 20 8 11 1009.5 1009.4 0.0
21/04:30pm 29.5 30.3 19.8 56 6.4 W 15 24 8 13 1009.2 1009.1 0.0
21/04:00pm 29.5 30.2 20.4 58 6.0 W 17 24 9 13 1009.2 1009.1 0.0
21/03:30pm 29.3 29.9 21.0 61 5.5 W 19 30 10 16 1009.3 1009.2 0.0
21/03:00pm 29.9 29.4 20.7 57 6.1 W 24 35 13 19 1009.7 1009.6 0.0
21/02:30pm 31.1 31.7 21.3 56 6.6 W 20 32 11 17 1009.9 1009.8 0.0
21/02:00pm 35.0 32.2 13.2 27 13.2 ESE 20 32 11 17 1009.9 1009.8 0.0
21/01:30pm 35.2 33.6 15.0 30 12.6 ESE 17 33 9 18 1010.0 1009.9 0.0
21/01:00pm 34.8 32.7 14.7 30 12.5 ESE 19 35 10 19 1010.7 1010.6 0.0
21/12:30pm 33.8 31.5 15.7 33 11.3 SE 22 32 12 17 1011.3 1011.2 0.0
21/12:00pm 33.2 32.1 17.8 40 9.9 SE 20 32 11 17 1011.9 1011.8 0.0
21/11:30am 31.7 31.0 18.3 45 8.7 SE 19 26 10 14 1012.4 1012.3 0.0
21/11:00am 30.0 30.6 19.4 53 6.9 SE 15 26 8 14 1012.9 1012.8 0.0
21/10:30am 28.6 29.2 19.5 58 5.9 SE 15 24 8 13 1013.5 1013.4 0.0
21/10:00am 28.1 28.9 19.9 61 5.4 SE 15 20 8 11 1013.4 1013.3 0.0
21/09:30am 26.6 26.3 19.5 65 4.6 ESE 20 26 11 14 1013.8 1013.7 0.0
21/09:00am 27.2 27.0 19.8 64 4.8 ESE 20 30 11 16 1013.6 1013.5 0.0
21/08:30am 25.4 25.1 19.5 70 3.8 E 20 28 11 15 1013.5 1013.4 0.0
21/08:00am 24.5 25.4 19.3 73 3.3 SE 13 20 7 11 1013.4 1013.3 0.0
21/07:30am 23.2 26.2 19.2 78 2.5 E 2 7 1 4 1013.1 1013.0 0.0
21/07:00am 21.2 24.5 19.1 88 1.3 CALM 0 0 0 0 1012.6 1012.5 0.0
21/06:30am 20.6 22.6 18.7 89 1.2 SSE 6 7 3 4 1012.2 1012.1 0.0
21/06:00am 20.8 22.6 18.7 88 1.3 SE 7 9 4 5 1012.0 1011.9 0.0
21/05:30am 20.9 22.7 18.8 88 1.3 SSE 7 11 4 6 1011.9 1011.8 0.0
21/05:00am 21.0 22.8 18.8 87 1.4 SSE 7 9 4 5 1011.7 1011.6 0.0
21/04:30am 21.3 22.7 18.7 85 1.6 SE 9 13 5 7 1011.5 1011.4 0.0
21/04:00am 21.3 23.1 18.7 85 1.6 SSE 7 9 4 5 1011.6 1011.5 0.0
21/03:30am 21.9 23.8 18.9 83 1.9 SE 7 9 4 5 1011.8 1011.7 0.0
21/03:00am 22.0 23.5 18.8 82 2.0 ESE 9 11 5 6 1011.7 1011.6 0.0
21/02:30am 21.9 23.3 18.7 82 2.0 SE 9 11 5 6 1011.8 1011.7 0.0
21/02:00am 22.0 23.7 18.6 81 2.1 SE 7 9 4 5 1012.1 1012.0 0.0
21/01:30am 22.6 25.3 18.6 78 2.5 SE 2 7 1 4 1012.4 1012.3 0.0
21/01:00am 23.2 24.6 18.7 76 2.8 SE 9 11 5 6 1012.5 1012.4 0.0
21/12:30am 23.7 24.8 18.8 74 3.1 ESE 11 15 6 8 1012.8 1012.7 0.0
21/12:00am 24.1 24.4 18.7 72 3.4 ESE 15 20 8 11 1013.1 1013.0 0.0
 
Date/Time
EST
Temp
°C
App
Temp
°C
Dew
Point
°C
Rel
Hum
%
Delta-T
°C
Wind Press
QNH
hPa
Press
MSL
hPa
Rain since
9am
mm
Dir  Spd
km/h
Gust
km/h
Spd
kts
Gust
kts
20/11:30pm 24.6 24.2 18.8 70 3.7 E 19 24 10 13 1013.5 1013.4 0.0
20/11:00pm 25.0 25.3 18.7 68 4.0 E 15 22 8 12 1013.7 1013.6 0.0
20/10:30pm 25.7 25.5 18.4 64 4.6 ESE 17 24 9 13 1013.7 1013.6 0.0
20/10:00pm 26.2 26.2 18.9 64 4.7 E 17 24 9 13 1013.5 1013.4 0.0
20/09:30pm 26.8 27.3 19.2 63 4.9 E 15 20 8 11 1013.3 1013.2 0.0
20/09:00pm 27.4 27.7 19.5 62 5.1 E 17 26 9 14 1013.1 1013.0 0.0
20/08:30pm 28.0 28.3 19.5 60 5.5 E 17 28 9 15 1012.7 1012.6 0.0
20/08:00pm 28.7 29.4 19.6 58 5.9 E 15 20 8 11 1012.3 1012.2 0.0
20/07:30pm 29.2 29.5 19.5 56 6.3 E 17 20 9 11 1011.8 1011.7 0.0
20/07:00pm 29.8 29.9 19.2 53 6.9 E 17 20 9 11 1011.3 1011.2 0.0
20/06:30pm 30.5 31.0 19.2 51 7.4 ENE 15 20 8 11 1010.9 1010.8 0.0
20/06:00pm 31.4 30.9 19.1 48 8.0 E 20 28 11 15 1010.5 1010.4 0.0
20/05:30pm 32.2 31.7 19.1 45 8.6 E 20 32 11 17 1010.2 1010.1 0.0
20/05:00pm 32.7 30.9 18.8 43 9.1 ENE 26 35 14 19 1010.1 1010.0 0.0
20/04:30pm 33.7 33.0 19.4 43 9.4 E 22 35 12 19 1009.9 1009.8 0.0
20/04:00pm 34.2 33.8 19.4 41 9.8 E 20 32 11 17 1010.0 1009.9 0.0
20/03:30pm 33.5 32.7 19.2 43 9.4 E 22 32 12 17 1010.1 1010.0 0.0
20/03:00pm 32.4 32.0 18.9 44 8.8 ESE 19 26 10 14 1010.6 1010.5 0.0
20/02:30pm 33.7 32.8 19.0 42 9.6 ESE 22 35 12 19 1011.1 1011.0 0.0
20/02:00pm 32.8 32.0 19.3 45 8.9 E 22 33 12 18 1011.7 1011.6 0.0
20/01:30pm 31.4 31.2 19.4 49 7.9 ENE 19 28 10 15 1012.2 1012.1 0.0
20/01:00pm 30.4 30.0 19.4 51 7.2 NE 20 30 11 16 1012.8 1012.7 0.0
20/12:30pm 32.2 31.9 19.5 47 8.4 ESE 20 28 11 15 1013.0 1012.9 0.0
20/12:00pm 32.2 31.3 19.1 45 8.6 ENE 22 37 12 20 1013.5 1013.4 0.0
20/11:30am 32.8 32.0 19.3 45 8.9 ESE 22 32 12 17 1013.7 1013.6 0.0
20/11:00am 30.4 29.8 18.5 49 7.7 SE 19 26 10 14 1014.0 1013.9 0.0
20/10:30am 28.6 28.1 19.0 56 6.2 ESE 20 26 11 14 1014.5 1014.4 0.0
20/10:00am 28.4 26.5 18.5 55 6.3 ESE 26 35 14 19 1014.6 1014.5 0.0

Other formats

Comma delimited format used in spreadsheet applications
http://www.bom.gov.au/fwo/IDQ60801/IDQ60801.94170.axf

JavaScript Object Notation format (JSON) in row-major order
http://www.bom.gov.au/fwo/IDQ60801/IDQ60801.94170.json

Data quality

Most of these data are generated automatically and are frequently updated. Quality checks on data are not normally performed. It is possible for incorrect values to appear. Refer to information at About Latest Weather Observations and please check the disclaimer before using these data.